Fiat, Indiana
Current Conditions -  °F | °C
As of 4:15 PM on Sunday 23 Nov 2014 (Local Time) from KVES Reporting Station
Overcast Overcast  
Wind Chill: 54°   Ceiling: 4500
Heat Index: 54°   Visibility: 10mi
Dew Point: 50°   Wind: 9mph
Humidity: 88%   Direction: 150°SSE
Pressure: 29.61"   Gusts: NA
Location:  40.5419°N, 84.8968°W
Report Text: KVES 232115Z AUTO 15008KT 10SM OVC045 12/10 A2961 RMK AO2
Loading
Personal Weather Stations






























Interactive Weather Map New forecast layout! Learn more

10-Day Weather Forecast

Advertisements
Track Severe Weather on mobile